Time;durP1;ratioP1;P1;durP2;ratioP2;P2;SDS_P1;SDS_P2;PMS_P1;PMS_P2;Temp;Humidity;BMP_temperature;BMP_pressure;BME280_temperature;BME280_humidity;BME280_pressure;Samples;Min_cycle;Max_cycle;Signal;HPM_P1;HPM_P2
2021/04/27 00:04:09;;;;;;;9.27;5.13;;;;;6.10;100791.00;;;;10560616;28;20196;-74
2021/04/27 00:09:11;;;;;;;9.60;5.70;;;;;6.20;100788.00;;;;10517595;28;20204;-74
2021/04/27 00:14:12;;;;;;;8.97;5.47;;;;;6.10;100794.00;;;;10526260;28;20791;-74
2021/04/27 00:19:13;;;;;;;9.73;5.70;;;;;6.10;100790.00;;;;10492746;28;20181;-74
2021/04/27 00:24:15;;;;;;;9.80;5.33;;;;;6.00;100769.00;;;;10509006;28;20189;-74
2021/04/27 00:29:16;;;;;;;15.70;5.90;;;;;6.00;100765.00;;;;10525448;28;20196;-74
2021/04/27 00:34:17;;;;;;;8.27;5.20;;;;;6.00;100764.00;;;;10525336;28;20188;-73
2021/04/27 00:39:18;;;;;;;8.23;5.90;;;;;5.90;100769.00;;;;10525264;28;20196;-74
2021/04/27 00:44:20;;;;;;;13.30;5.43;;;;;5.90;100761.00;;;;10491469;28;20659;-74
2021/04/27 00:49:21;;;;;;;9.67;5.43;;;;;5.80;100754.00;;;;10542726;28;20199;-74
2021/04/27 00:54:22;;;;;;;11.37;6.00;;;;;5.80;100751.00;;;;10491549;28;20188;-74
2021/04/27 00:59:23;;;;;;;12.63;5.23;;;;;5.70;100750.00;;;;10507896;28;20189;-74
2021/04/27 01:04:25;;;;;;;11.40;5.80;;;;;5.60;100737.00;;;;10507855;28;20200;-74
2021/04/27 01:09:34;;;;;;;10.13;5.30;;;;;5.50;100729.00;;;;10523912;28;20238;-74
2021/04/27 01:14:39;;;;;;;12.27;5.37;;;;;5.40;100725.00;;;;10506694;28;20185;-74
2021/04/27 01:19:55;;;;;;;7.90;4.87;;;;;5.30;100720.00;;;;10522879;28;20263;-74
2021/04/27 01:25:01;;;;;;;8.80;5.77;;;;;5.20;100714.00;;;;10535581;28;20223;-74
2021/04/27 01:30:04;;;;;;;9.97;5.93;;;;;5.20;100715.00;;;;10565412;28;20208;-74
2021/04/27 01:35:06;;;;;;;11.53;5.93;;;;;5.10;100713.00;;;;10515856;28;20548;-74
2021/04/27 01:40:41;;;;;;;8.67;4.77;;;;;5.00;100708.00;;;;10523552;28;20313;-74
2021/04/27 01:45:46;;;;;;;11.93;5.83;;;;;4.90;100705.00;;;;10521907;28;20205;-74
2021/04/27 01:50:48;;;;;;;11.00;5.13;;;;;4.80;100697.00;;;;10514001;28;20220;-74
2021/04/27 01:56:08;;;;;;;9.27;5.23;;;;;4.70;100695.00;;;;10506232;28;20192;-74
2021/04/27 02:01:09;;;;;;;10.73;5.63;;;;;4.60;100696.00;;;;10505352;28;20205;-73
2021/04/27 02:06:13;;;;;;;10.93;5.50;;;;;4.60;100701.00;;;;10504993;28;20219;-74
2021/04/27 02:11:15;;;;;;;8.37;5.80;;;;;4.50;100697.00;;;;10488545;28;20219;-74
2021/04/27 02:16:19;;;;;;;9.97;5.27;;;;;4.40;100709.00;;;;10521709;28;20199;-74
2021/04/27 02:21:22;;;;;;;9.40;5.43;;;;;4.30;100693.00;;;;10521544;28;20209;-74
2021/04/27 02:26:58;;;;;;;9.17;5.30;;;;;4.30;100690.00;;;;10509756;28;20197;-74
2021/04/27 02:32:06;;;;;;;12.07;5.83;;;;;4.30;100679.00;;;;10504152;28;20192;-73
2021/04/27 02:37:16;;;;;;;8.13;5.10;;;;;4.30;100681.00;;;;10505484;28;20188;-74
2021/04/27 02:42:21;;;;;;;13.13;5.57;;;;;4.20;100683.00;;;;10521156;28;20303;-74
2021/04/27 02:47:28;;;;;;;7.17;4.90;;;;;4.20;100683.00;;;;10553820;28;20555;-73
2021/04/27 02:52:33;;;;;;;9.87;5.40;;;;;4.10;100685.00;;;;10527649;28;20223;-74
2021/04/27 02:57:38;;;;;;;9.87;5.27;;;;;4.00;100674.00;;;;10529781;28;20189;-75
2021/04/27 03:02:40;;;;;;;8.37;5.37;;;;;3.90;100667.00;;;;10546562;28;20201;-74
2021/04/27 03:07:42;;;;;;;6.87;4.90;;;;;3.90;100673.00;;;;10528813;28;20204;-74
2021/04/27 03:12:45;;;;;;;9.70;5.43;;;;;3.90;100660.00;;;;10512214;28;20221;-74
2021/04/27 03:17:47;;;;;;;8.10;5.70;;;;;3.80;100656.00;;;;10511705;28;20195;-74
2021/04/27 03:22:49;;;;;;;9.07;5.60;;;;;3.80;100658.00;;;;10511700;28;20230;-74
2021/04/27 03:27:51;;;;;;;7.63;5.33;;;;;3.70;100646.00;;;;10511594;28;20193;-74
2021/04/27 03:33:24;;;;;;;8.13;5.57;;;;;3.60;100641.00;;;;10528076;28;20651;-74
2021/04/27 03:38:27;;;;;;;7.70;5.60;;;;;3.60;100644.00;;;;10546160;28;20597;-74
2021/04/27 03:43:29;;;;;;;8.03;5.57;;;;;3.60;100640.00;;;;10543903;28;20668;-73
2021/04/27 03:48:30;;;;;;;8.40;5.30;;;;;3.50;100639.00;;;;10527188;28;20201;-74
2021/04/27 03:53:33;;;;;;;10.93;5.57;;;;;3.40;100637.00;;;;10510145;28;20272;-74
2021/04/27 03:58:37;;;;;;;9.27;6.23;;;;;3.20;100629.00;;;;10526670;28;20221;-74
2021/04/27 04:03:44;;;;;;;10.13;6.20;;;;;3.10;100638.00;;;;10527161;28;20288;-74
2021/04/27 04:08:47;;;;;;;12.20;5.73;;;;;3.00;100632.00;;;;10542857;28;20201;-74
2021/04/27 04:13:49;;;;;;;8.63;6.13;;;;;2.90;100640.00;;;;10526267;28;20181;-74
2021/04/27 04:18:51;;;;;;;8.67;6.27;;;;;2.90;100643.00;;;;10526046;28;20189;-74
2021/04/27 04:23:54;;;;;;;7.60;5.73;;;;;2.80;100637.00;;;;10526160;28;20204;-73
2021/04/27 04:28:56;;;;;;;10.53;6.70;;;;;2.80;100633.00;;;;10542805;28;20189;-73
2021/04/27 04:33:59;;;;;;;12.17;6.40;;;;;2.90;100630.00;;;;10525518;28;20212;-74
2021/04/27 04:39:19;;;;;;;9.93;5.80;;;;;3.00;100632.00;;;;10527786;28;20193;-74
2021/04/27 04:44:58;;;;;;;12.83;7.23;;;;;3.10;100637.00;;;;10372791;28;20794;-73
2021/04/27 04:50:28;;;;;;;12.40;6.37;;;;;3.20;100634.00;;;;10477404;28;20208;-74
2021/04/27 04:55:36;;;;;;;14.53;6.57;;;;;3.40;100629.00;;;;10508703;28;20279;-74
2021/04/27 05:00:55;;;;;;;9.70;6.63;;;;;3.60;100626.00;;;;10510581;28;20215;-74
2021/04/27 05:06:16;;;;;;;7.20;6.13;;;;;3.70;100622.00;;;;10526086;28;20310;-73
2021/04/27 05:11:36;;;;;;;10.23;6.47;;;;;3.80;100632.00;;;;10509010;28;20314;-74
2021/04/27 05:16:59;;;;;;;10.83;7.50;;;;;4.30;100625.00;;;;10541439;28;20246;-74
2021/04/27 05:22:03;;;;;;;13.37;6.47;;;;;5.10;100630.00;;;;10506687;28;20560;-74
2021/04/27 05:27:06;;;;;;;10.07;5.87;;;;;5.80;100620.00;;;;10508891;28;20221;-74
2021/04/27 05:32:07;;;;;;;12.67;6.93;;;;;6.00;100628.00;;;;10523059;28;20197;-74
2021/04/27 05:37:09;;;;;;;11.00;6.03;;;;;6.40;100617.00;;;;10514917;28;20192;-74
2021/04/27 05:42:10;;;;;;;13.10;6.53;;;;;6.70;100617.00;;;;10514449;28;20193;-74
2021/04/27 05:47:12;;;;;;;13.80;6.50;;;;;7.00;100624.00;;;;10496751;28;20980;-74
2021/04/27 05:52:13;;;;;;;10.13;6.53;;;;;7.40;100626.00;;;;10497218;28;20790;-74
2021/04/27 05:57:15;;;;;;;10.87;5.70;;;;;7.70;100621.00;;;;10545910;28;20648;-74
2021/04/27 06:02:17;;;;;;;8.57;5.70;;;;;8.30;100624.00;;;;10538661;28;20602;-74
2021/04/27 06:07:18;;;;;;;15.97;6.33;;;;;9.00;100609.00;;;;10504985;28;20247;-74
2021/04/27 06:12:20;;;;;;;7.23;6.03;;;;;9.40;100611.00;;;;10505331;28;20215;-74
2021/04/27 06:17:21;;;;;;;11.60;6.13;;;;;9.70;100612.00;;;;10504688;28;20203;-74
2021/04/27 06:22:22;;;;;;;14.37;6.20;;;;;10.00;100612.00;;;;10513490;28;20208;-74
2021/04/27 06:27:27;;;;;;;9.60;5.83;;;;;10.20;100610.00;;;;10529512;28;20196;-74
2021/04/27 06:32:29;;;;;;;8.93;5.87;;;;;10.20;100611.00;;;;10520950;28;20256;-74
2021/04/27 06:37:30;;;;;;;10.70;7.17;;;;;10.50;100605.00;;;;10520428;28;20197;-74
2021/04/27 06:42:31;;;;;;;8.37;6.20;;;;;11.00;100599.00;;;;10520633;28;20207;-74
2021/04/27 06:47:32;;;;;;;9.13;5.70;;;;;11.40;100604.00;;;;10479070;28;20239;-75
2021/04/27 06:52:34;;;;;;;12.30;6.83;;;;;11.60;100593.00;;;;10496113;28;20212;-72
2021/04/27 06:57:36;;;;;;;10.93;6.57;;;;;11.90;100594.00;;;;10507786;28;20667;-74
2021/04/27 07:02:38;;;;;;;11.00;6.67;;;;;12.20;100588.00;;;;10501650;28;20204;-73
2021/04/27 07:07:39;;;;;;;15.67;7.37;;;;;12.50;100594.00;;;;10487809;28;20267;-74
2021/04/27 07:12:41;;;;;;;11.43;6.83;;;;;12.80;100581.00;;;;10510622;28;20228;-74
2021/04/27 07:17:42;;;;;;;11.10;6.50;;;;;13.00;100575.00;;;;10535596;28;20185;-74
2021/04/27 07:22:44;;;;;;;9.03;6.70;;;;;13.00;100575.00;;;;10508985;28;20228;-72
2021/04/27 07:27:46;;;;;;;14.17;6.87;;;;;13.00;100582.00;;;;10512403;28;20209;-75
2021/04/27 07:32:48;;;;;;;10.50;6.60;;;;;13.20;100574.00;;;;10492657;28;20192;-74
2021/04/27 07:37:50;;;;;;;10.40;7.10;;;;;13.50;100559.00;;;;10503092;28;20199;-74
2021/04/27 07:42:51;;;;;;;12.40;7.20;;;;;14.10;100556.00;;;;10526036;28;20896;-74
2021/04/27 07:47:52;;;;;;;8.90;6.93;;;;;14.60;100548.00;;;;10525891;28;20609;-74
2021/04/27 07:52:54;;;;;;;9.47;7.20;;;;;14.90;100552.00;;;;10488178;28;20848;-73
2021/04/27 07:57:55;;;;;;;9.10;6.47;;;;;15.10;100552.00;;;;10521941;28;20200;-74
2021/04/27 08:02:57;;;;;;;8.70;7.40;;;;;15.60;100552.00;;;;10522435;28;20208;-74
2021/04/27 08:07:59;;;;;;;11.10;7.13;;;;;16.10;100557.00;;;;10532952;28;20243;-74
2021/04/27 08:13:01;;;;;;;16.70;7.80;;;;;16.20;100553.00;;;;10512373;28;20250;-72
2021/04/27 08:18:02;;;;;;;10.90;7.40;;;;;16.40;100544.00;;;;10528550;28;20280;-73
2021/04/27 08:23:05;;;;;;;9.67;7.67;;;;;16.70;100543.00;;;;10480406;28;20213;-73
2021/04/27 08:28:26;;;;;;;12.17;8.03;;;;;17.60;100541.00;;;;10514925;28;20193;-73
2021/04/27 08:33:28;;;;;;;13.43;7.73;;;;;18.40;100531.00;;;;10536791;28;20831;-73
2021/04/27 08:38:31;;;;;;;14.30;7.70;;;;;18.80;100530.00;;;;10500123;28;20284;-73
2021/04/27 08:43:32;;;;;;;12.20;8.00;;;;;19.40;100527.00;;;;10477365;28;20216;-73
2021/04/27 08:48:34;;;;;;;12.55;7.25;;;;;19.90;100522.00;;;;10516982;28;20201;-73
2021/04/27 08:53:35;;;;;;;10.20;7.10;;;;;20.40;100524.00;;;;10516921;28;20220;-74
2021/04/27 08:58:39;;;;;;;10.02;7.07;;;;;19.80;100531.00;;;;10497200;28;20199;-73
2021/04/27 09:03:45;;;;;;;13.20;7.32;;;;;19.40;100520.00;;;;10501403;28;20205;-73
2021/04/27 09:08:48;;;;;;;13.20;7.28;;;;;19.20;100510.00;;;;10510580;28;20212;-73
2021/04/27 09:14:05;;;;;;;11.18;7.72;;;;;19.10;100509.00;;;;10518925;28;20192;-73
2021/04/27 09:19:06;;;;;;;9.93;6.88;;;;;18.90;100507.00;;;;10503574;28;20212;-73
2021/04/27 09:24:16;;;;;;;10.48;7.03;;;;;19.20;100502.00;;;;10525728;28;20601;-74
2021/04/27 09:29:29;;;;;;;9.00;6.72;;;;;19.20;100495.00;;;;10506789;28;20590;-73
2021/04/27 09:34:36;;;;;;;10.30;6.78;;;;;18.70;100494.00;;;;10524328;28;20200;-73
2021/04/27 09:39:43;;;;;;;9.35;6.68;;;;;18.80;100481.00;;;;10510477;28;20181;-74
2021/04/27 09:44:52;;;;;;;11.32;7.03;;;;;19.50;100473.00;;;;10524347;28;20200;-73
2021/04/27 09:49:55;;;;;;;8.00;6.85;;;;;19.80;100489.00;;;;10516074;28;20193;-74
2021/04/27 09:55:04;;;;;;;8.43;6.85;;;;;20.40;100481.00;;;;10536471;28;20258;-74
2021/04/27 10:00:28;;;;;;;9.82;7.57;;;;;20.70;100476.00;;;;10498900;28;20233;-74
2021/04/27 10:05:30;;;;;;;10.05;7.18;;;;;20.80;100465.00;;;;10515480;28;20220;-74
2021/04/27 10:10:34;;;;;;;9.27;7.25;;;;;20.90;100457.00;;;;10511917;28;20196;-74
2021/04/27 10:15:37;;;;;;;9.65;6.60;;;;;21.00;100445.00;;;;10535370;28;20689;-74
2021/04/27 10:20:39;;;;;;;10.27;7.05;;;;;21.50;100441.00;;;;10523051;28;20224;-74
2021/04/27 10:25:41;;;;;;;9.68;6.00;;;;;21.90;100422.00;;;;10498021;28;20205;-73
2021/04/27 10:30:45;;;;;;;7.75;6.97;;;;;22.10;100434.00;;;;10487210;28;20185;-72
2021/04/27 10:36:05;;;;;;;8.38;6.20;;;;;22.00;100425.00;;;;10509862;28;20587;-73
2021/04/27 10:41:15;;;;;;;10.07;6.63;;;;;22.20;100418.00;;;;10521853;28;20205;-73
2021/04/27 10:46:16;;;;;;;9.23;6.85;;;;;22.10;100413.00;;;;10477908;28;20651;-74
2021/04/27 10:51:20;;;;;;;7.18;6.43;;;;;22.30;100409.00;;;;10529586;28;20195;-74
2021/04/27 10:56:36;;;;;;;7.60;5.95;;;;;22.60;100406.00;;;;10516684;28;20203;-74
2021/04/27 11:01:43;;;;;;;7.13;6.00;;;;;23.20;100402.00;;;;10496532;28;20552;-74
2021/04/27 11:06:50;;;;;;;9.55;6.65;;;;;23.30;100402.00;;;;10510554;28;20291;-74
2021/04/27 11:11:51;;;;;;;8.10;6.13;;;;;23.30;100404.00;;;;10517917;28;20531;-74
2021/04/27 11:16:54;;;;;;;10.82;6.72;;;;;23.10;100394.00;;;;10527645;28;20196;-74
2021/04/27 11:22:15;;;;;;;7.05;5.95;;;;;23.10;100391.00;;;;10545189;28;20201;-74
2021/04/27 11:27:28;;;;;;;9.55;6.35;;;;;23.10;100385.00;;;;10509957;28;20634;-75
2021/04/27 11:32:31;;;;;;;7.90;6.68;;;;;23.10;100383.00;;;;10513476;28;20188;-74
2021/04/27 11:37:37;;;;;;;10.68;6.30;;;;;23.30;100380.00;;;;10527750;28;20181;-74
2021/04/27 11:42:38;;;;;;;10.05;7.80;;;;;23.30;100365.00;;;;10550900;28;20224;-74
2021/04/27 11:47:42;;;;;;;7.80;6.68;;;;;23.50;100370.00;;;;10528409;28;20667;-74
2021/04/27 11:53:02;;;;;;;10.57;6.15;;;;;23.20;100373.00;;;;10524078;28;20543;-74
2021/04/27 11:58:20;;;;;;;8.82;6.13;;;;;23.10;100364.00;;;;10528910;28;20189;-74
2021/04/27 12:03:31;;;;;;;6.72;5.55;;;;;23.60;100355.00;;;;10514321;28;20215;-74
2021/04/27 12:08:39;;;;;;;8.10;5.50;;;;;23.60;100348.00;;;;10551052;28;20617;-74
2021/04/27 12:13:46;;;;;;;6.60;6.00;;;;;23.70;100339.00;;;;10516135;28;20193;-74
2021/04/27 12:19:07;;;;;;;7.00;5.75;;;;;23.90;100335.00;;;;10501930;28;21034;-75
2021/04/27 12:24:34;;;;;;;6.00;5.40;;;;;24.00;100331.00;;;;10541436;28;20201;-74
2021/04/27 12:29:37;;;;;;;7.43;5.93;;;;;23.50;100319.00;;;;10499527;28;20192;-74
2021/04/27 12:35:01;;;;;;;7.35;6.25;;;;;23.50;100319.00;;;;10521487;28;20213;-75
2021/04/27 12:40:14;;;;;;;9.32;6.13;;;;;23.60;100313.00;;;;10486171;28;20613;-75
2021/04/27 12:45:17;;;;;;;6.03;5.43;;;;;23.50;100315.00;;;;10524039;28;20656;-74
2021/04/27 12:50:20;;;;;;;9.85;5.78;;;;;23.30;100307.00;;;;10507653;28;20197;-74
2021/04/27 12:55:25;;;;;;;6.72;6.07;;;;;23.60;100292.00;;;;10534530;28;20207;-74
2021/04/27 13:00:26;;;;;;;6.47;5.78;;;;;23.70;100280.00;;;;10538593;28;20204;-74
2021/04/27 13:05:34;;;;;;;6.13;5.50;;;;;24.10;100284.00;;;;10522453;28;20217;-74
2021/04/27 13:10:36;;;;;;;6.55;5.80;;;;;24.10;100285.00;;;;10535625;28;20299;-74
2021/04/27 13:15:37;;;;;;;7.15;5.45;;;;;23.90;100270.00;;;;10521677;28;20208;-74
2021/04/27 13:20:43;;;;;;;6.28;4.90;;;;;24.30;100265.00;;;;10539294;28;20200;-73
2021/04/27 13:25:47;;;;;;;9.85;5.50;;;;;24.90;100265.00;;;;10521225;28;20197;-73
2021/04/27 13:30:55;;;;;;;6.80;5.45;;;;;26.20;100265.00;;;;10514111;28;20188;-74
2021/04/27 13:36:01;;;;;;;6.07;5.47;;;;;27.60;100247.00;;;;10503726;28;20224;-73
2021/04/27 13:41:05;;;;;;;8.80;5.72;;;;;28.50;100261.00;;;;10528307;28;20212;-73
2021/04/27 13:46:08;;;;;;;10.43;6.35;;;;;29.00;100255.00;;;;10528913;28;20208;-73
2021/04/27 13:51:13;;;;;;;6.72;5.65;;;;;29.80;100248.00;;;;10568499;28;20189;-73
2021/04/27 13:56:17;;;;;;;10.45;6.55;;;;;30.10;100251.00;;;;10502376;28;20215;-73
2021/04/27 14:01:18;;;;;;;7.80;5.40;;;;;30.90;100239.00;;;;10522467;28;20212;-74
2021/04/27 14:06:19;;;;;;;8.05;5.72;;;;;31.70;100232.00;;;;10542108;28;20320;-73
2021/04/27 14:11:21;;;;;;;7.38;5.40;;;;;32.20;100221.00;;;;10554232;28;20200;-75
2021/04/27 14:16:22;;;;;;;9.30;5.32;;;;;30.90;100234.00;;;;10540756;28;20234;-75
2021/04/27 14:21:23;;;;;;;9.95;5.85;;;;;27.00;100226.00;;;;10528949;28;20208;-74
2021/04/27 14:26:25;;;;;;;6.10;5.60;;;;;27.50;100219.00;;;;10530666;28;20681;-74
2021/04/27 14:31:27;;;;;;;5.60;5.07;;;;;28.20;100212.00;;;;10539316;28;20190;-74
2021/04/27 14:36:28;;;;;;;7.00;4.90;;;;;30.90;100189.00;;;;10532244;28;20230;-74
2021/04/27 14:41:29;;;;;;;9.05;5.63;;;;;31.00;100197.00;;;;10549796;28;20548;-75
2021/04/27 14:46:33;;;;;;;7.88;5.95;;;;;32.50;100188.00;;;;10540034;28;21071;-75
2021/04/27 14:51:34;;;;;;;8.60;5.82;;;;;32.90;100188.00;;;;10519598;28;20184;-75
2021/04/27 14:56:36;;;;;;;6.30;5.75;;;;;32.30;100183.00;;;;10583470;28;20608;-76
2021/04/27 15:01:39;;;;;;;7.75;4.90;;;;;34.10;100174.00;;;;10543280;28;20219;-74
2021/04/27 15:06:40;;;;;;;6.25;5.65;;;;;34.00;100174.00;;;;10550562;28;20204;-75
2021/04/27 15:11:42;;;;;;;11.82;5.82;;;;;33.70;100174.00;;;;10538331;28;20207;-75
2021/04/27 15:16:43;;;;;;;8.38;5.70;;;;;31.00;100170.00;;;;10552204;28;20180;-74
2021/04/27 15:21:46;;;;;;;7.25;5.55;;;;;30.40;100174.00;;;;10556715;28;20205;-74
2021/04/27 15:26:47;;;;;;;8.60;6.63;;;;;26.10;100177.00;;;;10544177;28;20189;-74
2021/04/27 15:31:51;;;;;;;6.93;6.18;;;;;27.30;100167.00;;;;10551144;28;20188;-74
2021/04/27 15:36:57;;;;;;;6.38;5.70;;;;;24.40;100168.00;;;;10510091;28;20242;-74
2021/04/27 15:42:00;;;;;;;9.57;5.03;;;;;28.40;100148.00;;;;10548813;28;20235;-75
2021/04/27 15:47:03;;;;;;;6.90;6.30;;;;;29.20;100166.00;;;;10573798;28;20215;-75
2021/04/27 15:52:04;;;;;;;7.60;6.18;;;;;24.60;100168.00;;;;10505806;28;20222;-74
2021/04/27 15:57:06;;;;;;;8.10;6.82;;;;;23.30;100147.00;;;;10508100;28;20998;-74
2021/04/27 16:02:07;;;;;;;7.85;6.22;;;;;23.70;100144.00;;;;10524864;28;20240;-74
2021/04/27 16:07:09;;;;;;;10.20;6.72;;;;;24.50;100139.00;;;;10542170;28;20546;-74
2021/04/27 16:12:10;;;;;;;7.35;6.65;;;;;23.00;100147.00;;;;10530554;28;20199;-74
2021/04/27 16:17:12;;;;;;;8.00;6.70;;;;;21.50;100151.00;;;;10539003;28;20242;-74
2021/04/27 16:22:13;;;;;;;7.88;6.88;;;;;20.70;100147.00;;;;10536495;28;20205;-74
2021/04/27 16:27:15;;;;;;;6.43;5.82;;;;;20.10;100138.00;;;;10506995;28;20632;-74
2021/04/27 16:32:16;;;;;;;8.43;6.07;;;;;19.60;100135.00;;;;10557987;28;20275;-73
2021/04/27 16:37:18;;;;;;;7.32;5.65;;;;;19.20;100130.00;;;;10523865;28;20203;-74
2021/04/27 16:42:19;;;;;;;6.15;5.57;;;;;18.90;100122.00;;;;10541070;28;20225;-74
2021/04/27 16:47:21;;;;;;;9.43;5.80;;;;;18.70;100126.00;;;;10503402;28;20273;-73
2021/04/27 16:52:22;;;;;;;10.45;6.05;;;;;18.40;100114.00;;;;10536419;28;20684;-73
2021/04/27 16:57:23;;;;;;;8.02;5.13;;;;;18.20;100115.00;;;;10524295;28;20193;-73
2021/04/27 17:02:25;;;;;;;6.32;5.40;;;;;18.00;100107.00;;;;10526218;28;20196;-73
2021/04/27 17:07:26;;;;;;;8.03;6.13;;;;;17.90;100101.00;;;;10555597;28;20209;-73
2021/04/27 17:12:28;;;;;;;8.00;6.40;;;;;17.90;100092.00;;;;10522724;28;20185;-73
2021/04/27 17:17:29;;;;;;;7.73;5.90;;;;;17.80;100097.00;;;;10522340;28;21888;-73
2021/04/27 17:22:30;;;;;;;6.63;5.33;;;;;17.70;100094.00;;;;10496434;28;20263;-74
2021/04/27 17:27:31;;;;;;;8.93;6.27;;;;;17.60;100098.00;;;;10549031;28;20675;-74
2021/04/27 17:32:43;;;;;;;6.63;5.70;;;;;17.50;100095.00;;;;10506740;28;20251;-74
2021/04/27 17:37:45;;;;;;;10.30;6.40;;;;;17.30;100094.00;;;;10519104;28;20243;-74
2021/04/27 17:42:47;;;;;;;7.23;6.20;;;;;17.10;100096.00;;;;10532181;28;20200;-74
2021/04/27 17:47:48;;;;;;;9.63;6.33;;;;;16.90;100092.00;;;;10546861;28;20197;-75
2021/04/27 17:52:49;;;;;;;7.73;6.50;;;;;16.70;100097.00;;;;10504328;28;20569;-75
2021/04/27 17:57:52;;;;;;;8.27;5.90;;;;;16.60;100092.00;;;;10533594;28;20217;-74
2021/04/27 18:02:57;;;;;;;13.73;6.60;;;;;16.40;100088.00;;;;10527206;28;20731;-74
2021/04/27 18:07:58;;;;;;;8.17;6.60;;;;;16.20;100094.00;;;;10503577;28;20262;-74
2021/04/27 18:13:00;;;;;;;9.60;6.40;;;;;16.00;100098.00;;;;10516197;28;20266;-74
2021/04/27 18:18:04;;;;;;;6.87;6.17;;;;;15.80;100095.00;;;;10536492;28;20192;-74
2021/04/27 18:23:05;;;;;;;7.40;5.60;;;;;15.70;100094.00;;;;10509449;28;20200;-74
2021/04/27 18:28:08;;;;;;;9.23;6.03;;;;;15.40;100093.00;;;;10513635;28;20265;-74
2021/04/27 18:33:10;;;;;;;7.07;5.90;;;;;15.30;100095.00;;;;10531987;28;20212;-74
2021/04/27 18:38:11;;;;;;;7.77;5.50;;;;;15.10;100088.00;;;;10538642;28;20196;-74
2021/04/27 18:43:13;;;;;;;8.80;6.23;;;;;14.70;100101.00;;;;10489938;28;20239;-74
2021/04/27 18:48:17;;;;;;;7.00;5.70;;;;;14.40;100098.00;;;;10535682;28;20192;-74
2021/04/27 18:53:19;;;;;;;9.40;6.43;;;;;14.10;100101.00;;;;10533814;28;20208;-74
2021/04/27 18:58:20;;;;;;;6.37;5.57;;;;;13.90;100105.00;;;;10458607;28;20264;-74
2021/04/27 19:03:22;;;;;;;7.67;6.03;;;;;13.70;100102.00;;;;10491354;28;20221;-73
2021/04/27 19:08:24;;;;;;;10.03;6.00;;;;;13.40;100108.00;;;;10512238;28;20208;-74
2021/04/27 19:13:25;;;;;;;12.37;5.80;;;;;13.20;100103.00;;;;10526054;28;20241;-74
2021/04/27 19:18:27;;;;;;;7.70;5.37;;;;;13.10;100107.00;;;;10494583;28;20189;-74
2021/04/27 19:23:28;;;;;;;9.30;6.00;;;;;12.90;100112.00;;;;10521379;28;21062;-74
2021/04/27 19:28:31;;;;;;;8.33;6.10;;;;;12.70;100116.00;;;;10514951;28;20201;-73
2021/04/27 19:33:50;;;;;;;7.63;5.57;;;;;12.60;100123.00;;;;10530029;28;20200;-74
2021/04/27 19:38:51;;;;;;;7.67;5.40;;;;;12.40;100123.00;;;;10541856;28;20192;-73
2021/04/27 19:43:53;;;;;;;6.87;5.63;;;;;12.30;100130.00;;;;10521083;28;20226;-74
2021/04/27 19:48:54;;;;;;;11.60;5.97;;;;;12.30;100132.00;;;;10509963;28;20238;-74
2021/04/27 19:53:56;;;;;;;7.90;5.43;;;;;12.20;100127.00;;;;10538521;28;20204;-74
2021/04/27 19:58:57;;;;;;;9.40;5.67;;;;;12.10;100134.00;;;;10522871;28;20189;-74
2021/04/27 20:04:15;;;;;;;7.73;5.10;;;;;12.00;100126.00;;;;10520638;28;20246;-73
2021/04/27 20:09:20;;;;;;;14.33;7.30;;;;;11.90;100127.00;;;;10482144;28;20668;-74
2021/04/27 20:14:22;;;;;;;10.83;6.43;;;;;11.70;100129.00;;;;10492604;28;20193;-74
2021/04/27 20:19:23;;;;;;;11.73;6.57;;;;;11.60;100131.00;;;;10505206;28;20189;-74
2021/04/27 20:24:25;;;;;;;9.20;6.30;;;;;11.50;100125.00;;;;10505465;28;20201;-74
2021/04/27 20:29:26;;;;;;;10.83;6.43;;;;;11.30;100123.00;;;;10519548;28;20218;-74
2021/04/27 20:34:27;;;;;;;10.63;7.07;;;;;11.30;100134.00;;;;10517259;28;20193;-74
2021/04/27 20:39:31;;;;;;;12.30;6.93;;;;;11.20;100141.00;;;;10538322;28;20510;-73
2021/04/27 20:44:32;;;;;;;8.97;6.13;;;;;11.10;100138.00;;;;10540077;28;20248;-74
2021/04/27 20:49:40;;;;;;;10.97;6.03;;;;;11.00;100134.00;;;;10517008;28;20997;-74
2021/04/27 20:54:43;;;;;;;12.33;7.07;;;;;11.00;100141.00;;;;10504412;28;20281;-74
2021/04/27 20:59:44;;;;;;;10.80;6.40;;;;;11.00;100145.00;;;;10519854;28;20231;-74
2021/04/27 21:04:48;;;;;;;11.47;6.03;;;;;11.10;100137.00;;;;10518794;28;20702;-74
2021/04/27 21:09:49;;;;;;;7.13;5.80;;;;;11.20;100138.00;;;;10520154;28;20196;-73
2021/04/27 21:14:51;;;;;;;8.47;5.23;;;;;11.20;100144.00;;;;10542369;28;20184;-74
2021/04/27 21:19:52;;;;;;;8.57;6.30;;;;;11.30;100141.00;;;;10489485;28;20560;-73
2021/04/27 21:24:54;;;;;;;8.33;5.90;;;;;11.30;100139.00;;;;10519375;28;20200;-74
2021/04/27 21:29:56;;;;;;;10.93;6.20;;;;;11.30;100145.00;;;;10536309;28;20201;-73
2021/04/27 21:34:57;;;;;;;7.80;5.60;;;;;11.40;100143.00;;;;10553832;28;20292;-73
2021/04/27 21:39:59;;;;;;;8.23;5.67;;;;;11.30;100129.00;;;;10504227;28;20668;-73
2021/04/27 21:45:06;;;;;;;7.33;5.20;;;;;11.30;100136.00;;;;10503338;28;20213;-74
2021/04/27 21:50:10;;;;;;;6.03;5.43;;;;;11.40;100143.00;;;;10464895;28;20532;-74
2021/04/27 21:55:12;;;;;;;9.10;5.20;;;;;11.40;100136.00;;;;10517944;28;20371;-73
2021/04/27 22:00:32;;;;;;;8.83;4.47;;;;;11.40;100142.00;;;;10518483;28;20193;-74
2021/04/27 22:05:34;;;;;;;10.30;5.17;;;;;11.40;100150.00;;;;10479665;28;20293;-74
2021/04/27 22:10:37;;;;;;;9.70;5.07;;;;;11.30;100148.00;;;;10518268;28;20254;-74
2021/04/27 22:15:40;;;;;;;8.53;4.67;;;;;11.30;100141.00;;;;10514005;28;20247;-73
2021/04/27 22:20:43;;;;;;;6.53;3.83;;;;;11.20;100154.00;;;;10493707;28;20225;-74
2021/04/27 22:25:46;;;;;;;4.47;3.63;;;;;11.20;100145.00;;;;10496851;28;20874;-73
2021/04/27 22:30:52;;;;;;;7.30;3.50;;;;;11.10;100136.00;;;;10519968;28;20571;-74
2021/04/27 22:35:54;;;;;;;5.37;3.43;;;;;11.00;100137.00;;;;10505142;28;20226;-73
2021/04/27 22:40:55;;;;;;;5.83;3.57;;;;;10.90;100131.00;;;;10487227;28;20220;-73
2021/04/27 22:45:56;;;;;;;4.93;3.40;;;;;10.80;100136.00;;;;10504194;28;20212;-73
2021/04/27 22:50:58;;;;;;;7.23;3.67;;;;;10.70;100133.00;;;;10521538;28;20188;-73
2021/04/27 22:56:00;;;;;;;7.90;4.13;;;;;10.60;100123.00;;;;10503888;28;20204;-73
2021/04/27 23:01:03;;;;;;;5.07;3.20;;;;;10.60;100119.00;;;;10503068;28;20209;-73
2021/04/27 23:06:04;;;;;;;5.77;3.23;;;;;10.50;100116.00;;;;10533864;28;20209;-74
2021/04/27 23:11:06;;;;;;;5.63;3.83;;;;;10.30;100109.00;;;;10510595;28;20193;-73
2021/04/27 23:16:07;;;;;;;3.70;3.30;;;;;10.20;100116.00;;;;10511564;28;20193;-73
2021/04/27 23:21:08;;;;;;;7.63;3.53;;;;;10.10;100104.00;;;;10528855;28;20223;-73
2021/04/27 23:26:10;;;;;;;5.40;3.70;;;;;9.90;100116.00;;;;10494949;28;20201;-73
2021/04/27 23:31:11;;;;;;;4.13;3.73;;;;;9.80;100104.00;;;;10518504;28;20221;-73
2021/04/27 23:36:13;;;;;;;4.57;3.33;;;;;9.50;100102.00;;;;10504373;28;20194;-74
2021/04/27 23:41:15;;;;;;;7.60;3.47;;;;;9.30;100095.00;;;;10504026;28;20268;-73
2021/04/27 23:46:16;;;;;;;5.63;3.63;;;;;9.20;100094.00;;;;10519066;28;20194;-73
2021/04/27 23:51:17;;;;;;;5.07;3.80;;;;;9.10;100084.00;;;;10527702;28;20216;-73
2021/04/27 23:56:18;;;;;;;3.30;2.93;;;;;9.00;100093.00;;;;10510367;28;20228;-73
